Capitol Logistics 3265




KSAV
Savannah/Hilton Head International Airport
Savannah, Georgia
KMIA
Miami International Airport
Miami, Florida

Activity Log

Date Flight Route Aircraft Duration
04/09/2021 CPX3265 GIPPL WOPNR KENLL OMN HILEY7 SF34 1h 57m
03/30/2021 CPX3265 TYBEE V1 Y V437 OMN V3 TRV V51 PHK V267 PIONN EPENY SF34 1h 49m
04/09/2020 CPX3265 KELER V437 OMN V3 FLL B752 1h 24m
12/24/2019 CPX3265 KELER V437 OMN V3 FLL SF34 2h 10m
11/27/2019 CPX3265 KELER V437 OMN V3 FLL SF34 2h 04m
10/11/2019 CPX665 KELER V437 OMN V3 FLL SF34 1h 58m
09/24/2019 CPX665 KELER V437 OMN V3 FLL SF34 1h 46m
05/02/2019 CPX665 OMN PHK SF34 1h 32m
03/24/2019 CPX665 KELER V437 OMN V3 FLL SF34 1h 52m

Route Details

Aircraft Information
Primary: Saab 340AF
Backup: Not Available
Route Data
Distance: 382nm
Duration: 2h 20m
Recm'd Route: KELER V437 OMN V3 FLL
Origin Wx: KSAV 180153Z 19007KT 10SM FEW060 SCT110 SCT200 19/16 A2985 RMK AO2 SLP106 T01940161
Dest. Wx: KMIA 180153Z 28006KT 10SM CLR 26/18 A2991 RMK AO2 SLP128 T02610178 $
Notes: